createdAt,value
2023-02-26T00:00:32.660Z,-1.63
2023-02-26T00:02:36.762Z,-1.60
2023-02-26T00:04:39.415Z,-1.58
2023-02-26T00:06:54.711Z,-1.58
2023-02-26T00:08:59.982Z,-1.58
2023-02-26T00:11:06.299Z,-1.56
2023-02-26T00:13:11.441Z,-1.61
2023-02-26T00:15:15.247Z,-1.59
2023-02-26T00:17:26.890Z,-1.62
2023-02-26T00:19:29.700Z,-1.59
2023-02-26T00:21:33.551Z,-1.62
2023-02-26T00:23:36.168Z,-1.64
2023-02-26T00:25:38.655Z,-1.61
2023-02-26T00:27:41.515Z,-1.62
2023-02-26T00:29:44.360Z,-1.66
2023-02-26T00:31:47.303Z,-1.65
2023-02-26T00:33:50.360Z,-1.59
2023-02-26T00:36:01.714Z,-1.63
2023-02-26T00:38:11.234Z,-1.60
2023-02-26T00:40:41.495Z,-1.64
2023-02-26T00:42:44.257Z,-1.62
2023-02-26T00:44:47.260Z,-1.63
2023-02-26T00:47:07.887Z,-1.65
2023-02-26T00:49:28.732Z,-1.61
2023-02-26T00:51:53.722Z,-1.60
2023-02-26T00:54:16.642Z,-1.62
2023-02-26T00:56:19.275Z,-1.59
2023-02-26T00:58:21.852Z,-1.57
2023-02-26T01:00:24.518Z,-1.57
2023-02-26T01:02:27.439Z,-1.56
2023-02-26T01:04:30.230Z,-1.53
2023-02-26T01:06:35.265Z,-1.52
2023-02-26T01:08:53.638Z,-1.54
2023-02-26T01:10:56.330Z,-1.52
2023-02-26T01:12:59.112Z,-1.55
2023-02-26T01:15:01.859Z,-1.56
2023-02-26T01:17:34.307Z,-1.53
2023-02-26T01:20:11.335Z,-1.54
2023-02-26T01:22:17.422Z,-1.55
2023-02-26T01:24:23.336Z,-1.53
2023-02-26T01:26:29.597Z,-1.54
2023-02-26T01:28:32.549Z,-1.53
2023-02-26T01:30:35.981Z,-1.59
2023-02-26T01:32:59.721Z,-1.53
2023-02-26T01:35:09.975Z,-1.50
2023-02-26T01:37:47.381Z,-1.53
2023-02-26T01:40:08.880Z,-1.51
2023-02-26T01:42:23.767Z,-1.50
2023-02-26T01:44:53.835Z,-1.48
2023-02-26T01:47:30.189Z,-1.52
2023-02-26T01:49:33.499Z,-1.47
2023-02-26T01:51:52.901Z,-1.49
2023-02-26T01:53:55.357Z,-1.46
2023-02-26T01:56:02.922Z,-1.42
2023-02-26T01:58:06.037Z,-1.41
2023-02-26T02:00:10.014Z,-1.37
2023-02-26T02:02:17.051Z,-1.39
2023-02-26T02:04:20.431Z,-1.31
2023-02-26T02:06:26.799Z,-1.30
2023-02-26T02:08:30.910Z,-1.31
2023-02-26T02:10:33.385Z,-1.34
2023-02-26T02:12:40.763Z,-1.34
2023-02-26T02:14:49.473Z,-1.33
2023-02-26T02:16:57.802Z,-1.31
2023-02-26T02:19:39.300Z,-1.35
2023-02-26T02:22:18.935Z,-1.33
2023-02-26T02:24:46.508Z,-1.36
2023-02-26T02:26:51.552Z,-1.33
2023-02-26T02:28:56.713Z,-1.34
2023-02-26T02:31:12.779Z,-1.33
2023-02-26T02:33:20.020Z,-1.31
2023-02-26T02:35:38.846Z,-1.30
2023-02-26T02:38:27.981Z,-1.30
2023-02-26T02:40:35.439Z,-1.30
2023-02-26T02:43:03.857Z,-1.31
2023-02-26T02:45:25.676Z,-1.30
2023-02-26T02:47:31.512Z,-1.32
2023-02-26T02:49:45.151Z,-1.26
2023-02-26T02:51:54.334Z,-1.26
2023-02-26T02:54:04.045Z,-1.23
2023-02-26T02:56:18.122Z,-1.22
2023-02-26T02:58:25.577Z,-1.21
2023-02-26T03:00:31.752Z,-1.17
2023-02-26T03:02:37.811Z,-1.15
2023-02-26T03:04:41.833Z,-1.14
2023-02-26T03:06:46.925Z,-1.10
2023-02-26T03:08:50.952Z,-1.11
2023-02-26T03:10:53.680Z,-1.14
2023-02-26T03:12:56.576Z,-1.09
2023-02-26T03:15:01.011Z,-1.05
2023-02-26T03:17:20.667Z,-1.06
2023-02-26T03:19:35.264Z,-1.08
2023-02-26T03:22:05.097Z,-1.06
2023-02-26T03:24:23.718Z,-1.02
2023-02-26T03:26:47.336Z,-1.13
2023-02-26T03:29:02.783Z,-1.09
2023-02-26T03:31:18.100Z,-1.03
2023-02-26T03:33:31.531Z,-1.00
2023-02-26T03:35:52.193Z,-0.94
2023-02-26T03:37:59.463Z,-0.94
2023-02-26T03:40:07.080Z,-0.94
2023-02-26T03:42:35.554Z,-0.92
2023-02-26T03:44:44.787Z,-0.94
2023-02-26T03:46:52.943Z,-0.98
2023-02-26T03:49:00.074Z,-0.90
2023-02-26T03:51:11.699Z,-0.89
2023-02-26T03:53:39.040Z,-0.86
2023-02-26T03:55:56.794Z,-0.86
2023-02-26T03:57:59.329Z,-0.87
2023-02-26T04:00:02.090Z,-0.83
2023-02-26T04:02:17.811Z,-0.78
2023-02-26T04:04:55.265Z,-0.75
2023-02-26T04:06:58.111Z,-0.75
2023-02-26T04:09:02.259Z,-0.74
2023-02-26T04:11:25.889Z,-0.73
2023-02-26T04:13:28.562Z,-0.71
2023-02-26T04:15:31.067Z,-0.61
2023-02-26T04:17:33.612Z,-0.63
2023-02-26T04:19:36.181Z,-0.62
2023-02-26T04:21:38.739Z,-0.58
2023-02-26T04:23:41.969Z,-0.56
2023-02-26T04:25:44.410Z,-0.52
2023-02-26T04:27:46.936Z,-0.52
2023-02-26T04:29:49.544Z,-0.50
2023-02-26T04:31:52.279Z,-0.49
2023-02-26T04:33:54.923Z,-0.44
2023-02-26T04:35:57.735Z,-0.34
2023-02-26T04:38:00.267Z,-0.34
2023-02-26T04:40:02.797Z,-0.34
2023-02-26T04:42:05.753Z,-0.25
2023-02-26T04:44:08.342Z,-0.22
2023-02-26T04:46:11.144Z,-0.17
2023-02-26T04:48:15.033Z,-0.18
2023-02-26T04:50:17.696Z,-0.15
2023-02-26T04:52:20.386Z,-0.10
2023-02-26T04:54:23.019Z,-0.08
2023-02-26T04:56:26.551Z,-0.04
2023-02-26T04:58:29.276Z,-0.04
2023-02-26T05:00:31.886Z,-0.03
2023-02-26T05:02:34.718Z,0.07
2023-02-26T05:04:37.230Z,0.17
2023-02-26T05:06:39.829Z,0.13
2023-02-26T05:08:43.237Z,0.18
2023-02-26T05:10:46.438Z,0.18
2023-02-26T05:12:48.972Z,0.21
2023-02-26T05:14:51.507Z,0.22
2023-02-26T05:16:54.133Z,0.33
2023-02-26T05:18:56.690Z,0.43
2023-02-26T05:20:59.456Z,0.40
2023-02-26T05:23:02.177Z,0.46
2023-02-26T05:25:06.394Z,0.59
2023-02-26T05:27:10.246Z,0.59
2023-02-26T05:29:12.991Z,0.59
2023-02-26T05:31:16.159Z,0.62
2023-02-26T05:33:19.667Z,0.71
2023-02-26T05:35:22.244Z,0.68
2023-02-26T05:37:24.757Z,0.73
2023-02-26T05:39:27.327Z,0.61
2023-02-26T05:41:29.889Z,0.52
2023-02-26T05:43:33.787Z,0.60
2023-02-26T05:45:36.363Z,0.56
2023-02-26T05:47:38.989Z,0.54
2023-02-26T05:49:41.530Z,0.56
2023-02-26T05:51:44.171Z,0.60
2023-02-26T05:53:46.820Z,0.73
2023-02-26T05:55:49.610Z,0.74
2023-02-26T05:57:52.354Z,0.75
2023-02-26T05:59:55.131Z,0.79
2023-02-26T06:01:57.804Z,0.83
2023-02-26T06:04:01.826Z,0.81
2023-02-26T06:06:04.877Z,0.80
2023-02-26T06:08:07.521Z,0.79
2023-02-26T06:10:10.949Z,0.80
2023-02-26T06:12:13.546Z,0.79
2023-02-26T06:14:17.211Z,0.80
2023-02-26T06:16:21.090Z,0.86
2023-02-26T06:18:23.932Z,0.83
2023-02-26T06:20:26.448Z,0.88
2023-02-26T06:22:29.308Z,0.88
2023-02-26T06:24:31.931Z,0.91
2023-02-26T06:26:34.722Z,0.91
2023-02-26T06:28:37.500Z,0.86
2023-02-26T06:30:40.328Z,0.85
2023-02-26T06:32:45.223Z,0.84
2023-02-26T06:34:47.849Z,0.81
2023-02-26T06:36:50.424Z,0.84
2023-02-26T06:38:53.062Z,0.85
2023-02-26T06:40:55.985Z,0.83
2023-02-26T06:42:58.473Z,0.90
2023-02-26T06:45:01.015Z,0.88
2023-02-26T06:47:03.763Z,0.92
2023-02-26T06:49:06.515Z,0.99
2023-02-26T06:51:09.953Z,0.98
2023-02-26T06:53:12.589Z,0.99
2023-02-26T06:55:15.182Z,0.97
2023-02-26T06:57:17.730Z,1.08
2023-02-26T06:59:20.304Z,1.13
2023-02-26T07:01:24.401Z,1.13
2023-02-26T07:03:27.018Z,1.14
2023-02-26T07:05:29.498Z,1.22
2023-02-26T07:07:32.208Z,1.33
2023-02-26T07:09:34.809Z,1.41
2023-02-26T07:11:37.374Z,1.36
2023-02-26T07:13:39.882Z,1.49
2023-02-26T07:15:44.829Z,1.52
2023-02-26T07:17:48.606Z,1.56
2023-02-26T07:19:52.509Z,1.65
2023-02-26T07:21:56.234Z,1.69
2023-02-26T07:23:58.722Z,1.85
2023-02-26T07:26:02.376Z,1.92
2023-02-26T07:28:05.282Z,2.00
2023-02-26T07:30:09.138Z,2.08
2023-02-26T07:32:11.783Z,1.97
2023-02-26T07:34:15.058Z,1.98
2023-02-26T07:36:17.830Z,2.03
2023-02-26T07:38:20.873Z,2.13
2023-02-26T07:40:23.514Z,2.22
2023-02-26T07:42:26.214Z,2.22
2023-02-26T07:44:28.713Z,2.35
2023-02-26T07:46:31.381Z,2.57
2023-02-26T07:48:34.176Z,2.77
2023-02-26T07:50:36.886Z,2.68
2023-02-26T07:52:39.938Z,2.63
2023-02-26T07:54:42.777Z,2.59
2023-02-26T07:56:45.428Z,2.58
2023-02-26T07:58:48.053Z,2.60
2023-02-26T08:00:52.795Z,2.52
2023-02-26T08:02:55.616Z,2.41
2023-02-26T08:04:58.346Z,2.41
2023-02-26T08:07:01.783Z,2.37
2023-02-26T08:09:05.592Z,2.35
2023-02-26T08:11:08.132Z,2.24
2023-02-26T08:13:10.973Z,2.16
2023-02-26T08:15:14.641Z,2.18
2023-02-26T08:17:17.284Z,2.33
2023-02-26T08:19:19.948Z,2.51
2023-02-26T08:21:22.548Z,2.51
2023-02-26T08:23:26.871Z,2.50
2023-02-26T08:25:29.463Z,2.53
2023-02-26T08:27:32.053Z,2.59
2023-02-26T08:29:34.602Z,2.57
2023-02-26T08:31:37.445Z,2.43
2023-02-26T08:33:40.256Z,2.39
2023-02-26T08:35:42.726Z,2.46
2023-02-26T08:37:45.366Z,2.53
2023-02-26T08:39:47.964Z,2.54
2023-02-26T08:41:50.563Z,2.55
2023-02-26T08:43:53.263Z,2.47
2023-02-26T08:45:57.621Z,2.40
2023-02-26T08:48:00.268Z,2.39
2023-02-26T08:50:03.417Z,2.24
2023-02-26T08:52:06.692Z,2.15
2023-02-26T08:54:09.966Z,2.25
2023-02-26T08:56:12.828Z,2.26
2023-02-26T08:58:15.499Z,2.32
2023-02-26T09:00:19.474Z,2.30
2023-02-26T09:02:22.074Z,2.26
2023-02-26T09:04:24.652Z,2.22
2023-02-26T09:06:27.821Z,2.21
2023-02-26T09:08:34.098Z,2.18
2023-02-26T09:10:36.721Z,2.19
2023-02-26T09:12:39.593Z,2.11
2023-02-26T09:14:42.723Z,2.03
2023-02-26T09:16:46.778Z,2.04
2023-02-26T09:18:49.795Z,1.94
2023-02-26T09:20:52.532Z,1.87
2023-02-26T09:22:55.116Z,1.84
2023-02-26T09:24:58.154Z,1.77
2023-02-26T09:27:02.022Z,1.80
2023-02-26T09:29:17.653Z,1.74
2023-02-26T09:31:20.621Z,1.72
2023-02-26T09:33:23.841Z,1.64
2023-02-26T09:35:26.578Z,1.77
2023-02-26T09:37:29.206Z,1.74
2023-02-26T09:39:32.985Z,1.61
2023-02-26T09:41:44.398Z,1.51
2023-02-26T09:44:16.737Z,1.40
2023-02-26T09:46:44.403Z,1.22
2023-02-26T09:48:49.934Z,1.16
2023-02-26T09:50:56.824Z,1.18
2023-02-26T09:53:22.763Z,1.07
2023-02-26T09:55:28.321Z,1.08
2023-02-26T09:57:37.065Z,1.03
2023-02-26T09:59:39.803Z,1.08
2023-02-26T10:01:54.184Z,1.05
2023-02-26T10:04:09.074Z,1.08
2023-02-26T10:06:21.729Z,1.07
2023-02-26T10:08:29.960Z,1.09
2023-02-26T10:10:36.348Z,1.09
2023-02-26T10:12:43.001Z,1.10
2023-02-26T10:15:01.244Z,1.07
2023-02-26T10:17:34.982Z,1.02
2023-02-26T10:19:42.510Z,1.03
2023-02-26T10:22:06.867Z,1.05
2023-02-26T10:24:29.036Z,1.07
2023-02-26T10:26:58.941Z,1.05
2023-02-26T10:29:22.868Z,1.07
2023-02-26T10:31:52.081Z,0.97
2023-02-26T10:34:02.730Z,0.97
2023-02-26T10:36:25.326Z,0.97
2023-02-26T10:38:31.451Z,1.00
2023-02-26T10:40:52.247Z,1.00
2023-02-26T10:43:18.616Z,1.09
2023-02-26T10:45:45.945Z,1.07
2023-02-26T10:48:37.266Z,1.02
2023-02-26T10:50:46.809Z,1.04
2023-02-26T10:52:52.125Z,1.02
2023-02-26T10:55:25.876Z,0.96
2023-02-26T10:57:34.704Z,1.01
2023-02-26T10:59:37.511Z,0.97
2023-02-26T11:01:42.476Z,1.03
2023-02-26T11:03:49.906Z,1.06
2023-02-26T11:05:52.590Z,1.00
2023-02-26T11:08:01.712Z,1.05
2023-02-26T11:10:04.902Z,1.10
2023-02-26T11:12:18.077Z,1.14
2023-02-26T11:14:22.235Z,1.15
2023-02-26T11:16:26.324Z,1.08
2023-02-26T11:18:36.659Z,1.15
2023-02-26T11:20:42.763Z,1.15
2023-02-26T11:22:52.600Z,1.10
2023-02-26T11:24:57.316Z,1.15
2023-02-26T11:27:04.426Z,1.14
2023-02-26T11:29:07.106Z,1.13
2023-02-26T11:31:12.237Z,1.09
2023-02-26T11:33:22.201Z,1.10
2023-02-26T11:35:26.748Z,1.05
2023-02-26T11:37:38.247Z,1.03
2023-02-26T11:39:41.124Z,1.09
2023-02-26T11:41:47.182Z,1.09
2023-02-26T11:43:58.993Z,1.05
2023-02-26T11:46:03.281Z,1.11
2023-02-26T11:48:20.294Z,1.05
2023-02-26T11:50:23.877Z,1.04
2023-02-26T11:52:42.271Z,0.92
2023-02-26T11:54:49.136Z,1.04
2023-02-26T11:56:51.863Z,1.07
2023-02-26T11:58:58.127Z,1.09
2023-02-26T12:01:03.047Z,1.02
2023-02-26T12:03:12.807Z,0.97
2023-02-26T12:05:17.834Z,0.96
2023-02-26T12:07:22.104Z,1.00
2023-02-26T12:09:26.650Z,0.94
2023-02-26T12:11:56.744Z,1.01
2023-02-26T12:14:20.861Z,0.99
2023-02-26T12:16:40.655Z,0.97
2023-02-26T12:18:43.169Z,0.94
2023-02-26T12:21:02.814Z,0.94
2023-02-26T12:23:14.376Z,0.93
2023-02-26T12:25:22.687Z,0.92
2023-02-26T12:28:06.559Z,0.93
2023-02-26T12:30:48.745Z,0.93
2023-02-26T12:33:23.544Z,0.90
2023-02-26T12:35:43.029Z,0.96
2023-02-26T12:38:06.877Z,0.99
2023-02-26T12:40:21.528Z,0.97
2023-02-26T12:43:02.056Z,0.87
2023-02-26T12:45:22.971Z,0.82
2023-02-26T12:48:11.150Z,0.79
2023-02-26T12:50:34.720Z,0.79
2023-02-26T12:52:58.928Z,0.73
2023-02-26T12:55:10.213Z,0.73
2023-02-26T12:57:41.243Z,0.68
2023-02-26T13:00:02.388Z,0.69
2023-02-26T13:02:28.394Z,0.73
2023-02-26T13:05:18.648Z,0.69
2023-02-26T13:07:39.340Z,0.67
2023-02-26T13:09:47.741Z,0.71
2023-02-26T13:12:14.825Z,0.77
2023-02-26T13:14:38.855Z,0.75
2023-02-26T13:17:04.013Z,0.74
2023-02-26T13:19:15.196Z,0.70
2023-02-26T13:21:26.739Z,0.66
2023-02-26T13:23:58.006Z,0.61
2023-02-26T13:26:07.780Z,0.61
2023-02-26T13:28:40.528Z,0.63
2023-02-26T13:30:52.347Z,0.65
2023-02-26T13:32:58.711Z,0.62
2023-02-26T13:35:26.232Z,0.61
2023-02-26T13:37:53.658Z,0.66
2023-02-26T13:40:11.814Z,0.65
2023-02-26T13:42:33.521Z,0.60
2023-02-26T13:44:54.921Z,0.68
2023-02-26T13:46:57.446Z,0.67
2023-02-26T13:49:12.208Z,0.67
2023-02-26T13:51:29.781Z,0.64
2023-02-26T13:53:47.969Z,0.55
2023-02-26T13:55:52.952Z,0.60
2023-02-26T13:57:57.052Z,0.61
2023-02-26T14:00:17.770Z,0.58
2023-02-26T14:02:21.319Z,0.58
2023-02-26T14:04:33.505Z,0.61
2023-02-26T14:06:43.821Z,0.61
2023-02-26T14:08:49.785Z,0.52
2023-02-26T14:11:25.279Z,0.56
2023-02-26T14:13:40.515Z,0.56
2023-02-26T14:16:24.129Z,0.61
2023-02-26T14:18:37.775Z,0.57
2023-02-26T14:20:40.394Z,0.62
2023-02-26T14:22:47.819Z,0.62
2023-02-26T14:25:08.944Z,0.62
2023-02-26T14:27:11.442Z,0.63
2023-02-26T14:29:21.939Z,0.60
2023-02-26T14:31:28.835Z,0.60
2023-02-26T14:33:37.720Z,0.59
2023-02-26T14:35:45.135Z,0.63
2023-02-26T14:38:20.162Z,0.62
2023-02-26T14:40:25.737Z,0.63
2023-02-26T14:42:35.044Z,0.60
2023-02-26T14:44:44.054Z,0.56
2023-02-26T14:46:48.358Z,0.55
2023-02-26T14:48:51.334Z,0.53
2023-02-26T14:51:17.165Z,0.56
2023-02-26T14:53:46.887Z,0.54
2023-02-26T14:56:13.915Z,0.56
2023-02-26T14:58:31.496Z,0.54
2023-02-26T15:00:43.549Z,0.55
2023-02-26T15:02:45.899Z,0.56
2023-02-26T15:05:00.287Z,0.53
2023-02-26T15:07:17.415Z,0.51
2023-02-26T15:09:27.470Z,0.50
2023-02-26T15:12:09.398Z,0.51
2023-02-26T15:14:42.911Z,0.56
2023-02-26T15:17:13.638Z,0.55
2023-02-26T15:19:32.343Z,0.56
2023-02-26T15:21:53.256Z,0.50
2023-02-26T15:23:58.709Z,0.58
2023-02-26T15:26:05.373Z,0.59
2023-02-26T15:28:13.841Z,0.60
2023-02-26T15:30:18.001Z,0.59
2023-02-26T15:32:26.973Z,0.65
2023-02-26T15:34:31.025Z,0.70
2023-02-26T15:36:33.657Z,0.62
2023-02-26T15:39:09.305Z,0.69
2023-02-26T15:41:12.977Z,0.73
2023-02-26T15:43:21.601Z,0.68
2023-02-26T15:45:36.273Z,0.72
2023-02-26T15:47:39.494Z,0.69
2023-02-26T15:49:48.471Z,0.67
2023-02-26T15:51:53.556Z,0.68
2023-02-26T15:53:58.230Z,0.71
2023-02-26T15:56:05.376Z,0.66
2023-02-26T15:58:08.885Z,0.67
2023-02-26T16:00:17.685Z,0.67
2023-02-26T16:02:29.832Z,0.68
2023-02-26T16:04:35.922Z,0.70
2023-02-26T16:06:42.280Z,0.71
2023-02-26T16:08:44.907Z,0.72
2023-02-26T16:10:47.849Z,0.73
2023-02-26T16:12:53.731Z,0.79
2023-02-26T16:15:05.940Z,0.75
2023-02-26T16:17:14.874Z,0.83
2023-02-26T16:19:22.161Z,0.80
2023-02-26T16:21:29.931Z,0.78
2023-02-26T16:23:46.916Z,0.75
2023-02-26T16:25:54.818Z,0.79
2023-02-26T16:28:07.018Z,0.76
2023-02-26T16:30:24.274Z,0.76
2023-02-26T16:32:30.459Z,0.75
2023-02-26T16:34:40.391Z,0.74
2023-02-26T16:36:43.155Z,0.75
2023-02-26T16:39:10.011Z,0.73
2023-02-26T16:41:14.443Z,0.75
2023-02-26T16:43:50.980Z,0.74
2023-02-26T16:45:59.858Z,0.74
2023-02-26T16:48:17.366Z,0.76
2023-02-26T16:50:27.093Z,0.74
2023-02-26T16:52:29.825Z,0.74
2023-02-26T16:54:40.906Z,0.78
2023-02-26T16:56:46.705Z,0.76
2023-02-26T16:59:03.102Z,0.77
2023-02-26T17:01:12.887Z,0.76
2023-02-26T17:03:18.792Z,0.78
2023-02-26T17:05:25.503Z,0.77
2023-02-26T17:07:32.767Z,0.78
2023-02-26T17:09:42.355Z,0.76
2023-02-26T17:11:46.185Z,0.82
2023-02-26T17:14:19.602Z,0.82
2023-02-26T17:16:23.489Z,0.83
2023-02-26T17:18:27.061Z,0.86
2023-02-26T17:20:31.287Z,0.91
2023-02-26T17:22:34.406Z,0.88
2023-02-26T17:24:44.791Z,0.88
2023-02-26T17:26:48.906Z,0.88
2023-02-26T17:28:52.708Z,0.91
2023-02-26T17:30:57.083Z,0.90
2023-02-26T17:33:02.751Z,0.88
2023-02-26T17:35:06.610Z,0.90
2023-02-26T17:37:13.201Z,0.84
2023-02-26T17:39:16.487Z,0.90
2023-02-26T17:41:19.268Z,0.90
2023-02-26T17:43:23.190Z,0.90
2023-02-26T17:45:26.444Z,0.92
2023-02-26T17:47:28.995Z,0.88
2023-02-26T17:49:31.853Z,0.93
2023-02-26T17:51:34.645Z,0.91
2023-02-26T17:53:41.114Z,0.92
2023-02-26T17:55:45.690Z,0.93
2023-02-26T17:57:48.575Z,0.94
2023-02-26T17:59:51.855Z,0.98
2023-02-26T18:01:55.128Z,1.00
2023-02-26T18:03:58.341Z,1.01
2023-02-26T18:06:01.932Z,1.02
2023-02-26T18:08:06.854Z,1.03
2023-02-26T18:10:18.495Z,1.02
2023-02-26T18:12:23.293Z,1.02
2023-02-26T18:14:26.699Z,1.03
2023-02-26T18:16:33.950Z,1.07
2023-02-26T18:18:38.124Z,1.07
2023-02-26T18:20:41.151Z,1.05
2023-02-26T18:22:44.358Z,1.07
2023-02-26T18:24:46.962Z,1.10
2023-02-26T18:26:49.935Z,1.09
2023-02-26T18:28:52.723Z,1.09
2023-02-26T18:30:56.950Z,1.05
2023-02-26T18:32:59.593Z,1.09
2023-02-26T18:35:02.151Z,1.10
2023-02-26T18:37:07.049Z,1.08
2023-02-26T18:39:16.293Z,1.08
2023-02-26T18:41:19.198Z,1.05
2023-02-26T18:43:22.099Z,1.10
2023-02-26T18:45:24.668Z,1.10
2023-02-26T18:47:27.422Z,1.10
2023-02-26T18:49:30.609Z,1.09
2023-02-26T18:51:34.642Z,1.08
2023-02-26T18:53:37.805Z,1.12
2023-02-26T18:55:40.362Z,1.09
2023-02-26T18:57:43.273Z,1.08
2023-02-26T18:59:45.912Z,1.07
2023-02-26T19:01:48.769Z,1.09
2023-02-26T19:03:51.406Z,1.09
2023-02-26T19:06:03.036Z,1.10
2023-02-26T19:08:06.299Z,1.13
2023-02-26T19:10:13.611Z,1.16
2023-02-26T19:12:20.218Z,1.16
2023-02-26T19:14:23.856Z,1.21
2023-02-26T19:16:27.866Z,1.22
2023-02-26T19:18:30.539Z,1.22
2023-02-26T19:20:33.106Z,1.24
2023-02-26T19:22:35.788Z,1.23
2023-02-26T19:24:38.489Z,1.23
2023-02-26T19:26:42.769Z,1.24
2023-02-26T19:28:45.912Z,1.26
2023-02-26T19:30:48.397Z,1.26
2023-02-26T19:32:51.895Z,1.21
2023-02-26T19:34:54.615Z,1.24
2023-02-26T19:36:57.386Z,1.26
2023-02-26T19:39:01.765Z,1.26
2023-02-26T19:41:04.514Z,1.21
2023-02-26T19:43:06.997Z,1.25
2023-02-26T19:45:10.586Z,1.26
2023-02-26T19:47:13.209Z,1.24
2023-02-26T19:49:16.195Z,1.25
2023-02-26T19:51:19.022Z,1.28
2023-02-26T19:53:21.874Z,1.26
2023-02-26T19:55:24.393Z,1.26
2023-02-26T19:57:28.032Z,1.29
2023-02-26T19:59:30.641Z,1.28
2023-02-26T20:01:33.253Z,1.24
2023-02-26T20:03:35.980Z,1.27
2023-02-26T20:05:38.541Z,1.28
2023-02-26T20:07:41.017Z,1.30
2023-02-26T20:09:43.570Z,1.34
2023-02-26T20:11:46.400Z,1.32
2023-02-26T20:13:48.876Z,1.33
2023-02-26T20:15:53.528Z,1.34
2023-02-26T20:17:56.485Z,1.35
2023-02-26T20:19:59.006Z,1.35
2023-02-26T20:22:01.557Z,1.36
2023-02-26T20:24:06.108Z,1.40
2023-02-26T20:26:13.865Z,1.34
2023-02-26T20:28:18.417Z,1.38
2023-02-26T20:30:21.210Z,1.43
2023-02-26T20:32:24.275Z,1.48
2023-02-26T20:34:27.407Z,1.52
2023-02-26T20:36:30.000Z,1.55
2023-02-26T20:38:32.683Z,1.57
2023-02-26T20:40:35.216Z,1.60
2023-02-26T20:42:38.081Z,1.63
2023-02-26T20:44:40.732Z,1.65
2023-02-26T20:46:43.520Z,1.72
2023-02-26T20:48:46.084Z,1.67
2023-02-26T20:50:49.788Z,1.67
2023-02-26T20:52:52.368Z,1.63
2023-02-26T20:54:54.980Z,1.61
2023-02-26T20:56:57.556Z,1.66
2023-02-26T20:59:00.438Z,1.65
2023-02-26T21:01:02.974Z,1.68
2023-02-26T21:03:05.658Z,1.66
2023-02-26T21:05:09.147Z,1.65
2023-02-26T21:07:17.691Z,1.63
2023-02-26T21:09:20.284Z,1.57
2023-02-26T21:11:23.650Z,1.56
2023-02-26T21:13:26.310Z,1.50
2023-02-26T21:15:28.851Z,1.52
2023-02-26T21:17:32.569Z,1.50
2023-02-26T21:19:35.279Z,1.48
2023-02-26T21:21:37.800Z,1.45
2023-02-26T21:23:40.276Z,1.45
2023-02-26T21:25:44.384Z,1.42
2023-02-26T21:27:47.167Z,1.38
2023-02-26T21:29:49.839Z,1.40
2023-02-26T21:31:53.814Z,1.40
2023-02-26T21:33:56.882Z,1.40
2023-02-26T21:35:59.706Z,1.39
2023-02-26T21:38:02.333Z,1.39
2023-02-26T21:40:06.734Z,1.36
2023-02-26T21:42:13.060Z,1.38
2023-02-26T21:44:15.674Z,1.37
2023-02-26T21:46:18.150Z,1.41
2023-02-26T21:48:20.649Z,1.42
2023-02-26T21:50:23.298Z,1.41
2023-02-26T21:52:28.967Z,1.40
2023-02-26T21:54:31.775Z,1.41
2023-02-26T21:56:34.412Z,1.41
2023-02-26T21:58:36.927Z,1.44
2023-02-26T22:00:39.448Z,1.42
2023-02-26T22:02:44.006Z,1.45
2023-02-26T22:04:46.872Z,1.45
2023-02-26T22:06:49.410Z,1.46
2023-02-26T22:08:52.506Z,1.49
2023-02-26T22:10:55.036Z,1.48
2023-02-26T22:12:57.613Z,1.47
2023-02-26T22:15:00.347Z,1.47
2023-02-26T22:17:02.838Z,1.46
2023-02-26T22:19:05.900Z,1.48
2023-02-26T22:21:08.521Z,1.46
2023-02-26T22:23:11.088Z,1.47
2023-02-26T22:25:14.102Z,1.44
2023-02-26T22:27:16.547Z,1.44
2023-02-26T22:29:19.497Z,1.48
2023-02-26T22:31:22.342Z,1.50
2023-02-26T22:33:25.391Z,1.53
2023-02-26T22:35:28.540Z,1.53
2023-02-26T22:37:31.806Z,1.51
2023-02-26T22:39:34.383Z,1.53
2023-02-26T22:41:37.361Z,1.54
2023-02-26T22:43:40.635Z,1.56
2023-02-26T22:45:43.173Z,1.52
2023-02-26T22:47:48.059Z,1.52
2023-02-26T22:49:50.674Z,1.51
2023-02-26T22:51:53.172Z,1.51
2023-02-26T22:53:56.258Z,1.52
2023-02-26T22:55:58.838Z,1.54
2023-02-26T22:58:01.393Z,1.56
2023-02-26T23:00:11.522Z,1.50
2023-02-26T23:02:14.451Z,1.50
2023-02-26T23:04:17.260Z,1.48
2023-02-26T23:06:19.772Z,1.51
2023-02-26T23:08:22.276Z,1.51
2023-02-26T23:10:24.831Z,1.51
2023-02-26T23:12:27.375Z,1.50
2023-02-26T23:14:29.833Z,1.47
2023-02-26T23:16:32.404Z,1.49
2023-02-26T23:18:36.573Z,1.49
2023-02-26T23:20:39.334Z,1.50
2023-02-26T23:22:43.909Z,1.51
2023-02-26T23:24:46.827Z,1.45
2023-02-26T23:26:49.318Z,1.45
2023-02-26T23:28:52.300Z,1.45
2023-02-26T23:30:54.853Z,1.44
2023-02-26T23:32:57.380Z,1.44
2023-02-26T23:34:59.994Z,1.43
2023-02-26T23:37:02.531Z,1.43
2023-02-26T23:39:06.670Z,1.45
2023-02-26T23:41:09.322Z,1.44
2023-02-26T23:43:11.873Z,1.37
2023-02-26T23:45:14.462Z,1.42
2023-02-26T23:47:16.979Z,1.44
2023-02-26T23:49:19.507Z,1.44
2023-02-26T23:51:22.508Z,1.44
2023-02-26T23:53:25.064Z,1.47
2023-02-26T23:55:27.593Z,1.42
2023-02-26T23:57:30.466Z,1.37
2023-02-26T23:59:33.108Z,1.37
